Time;durP1;ratioP1;P1;durP2;ratioP2;P2;SDS_P1;SDS_P2;PMS_P1;PMS_P2;Temp;Humidity;BMP_temperature;BMP_pressure;BME280_temperature;BME280_humidity;BME280_pressure;Samples;Min_cycle;Max_cycle;Signal;HPM_P1;HPM_P2
2021/07/31 00:01:47;;;;;;;;;;;27.10;98.90;;;;;;1868400;77;20477;-87
2021/07/31 00:04:17;;;;;;;;;;;27.20;98.80;;;;;;1874408;75;20486;-88
2021/07/31 00:06:47;;;;;;;;;;;27.20;98.80;;;;;;1868018;75;20188;-88
2021/07/31 00:09:16;;;;;;;;;;;27.20;98.70;;;;;;1855813;77;20248;-88
2021/07/31 00:11:46;;;;;;;;;;;27.20;98.70;;;;;;1861874;75;20587;-88
2021/07/31 00:14:42;;;;;;;;;;;;;;;;;;;;;
2021/07/31 00:17:12;;;;;;;;;;;27.20;98.70;;;;;;1797830;78;20221;-87
2021/07/31 00:19:51;;;;;;;;;;;27.20;98.70;;;;;;1806007;78;20495;-88
2021/07/31 00:22:20;;;;;;;;;;;27.20;98.60;;;;;;1759310;78;20438;-88
2021/07/31 00:24:53;;;;;;;;;;;27.20;98.60;;;;;;1806861;78;20426;-87
2021/07/31 00:27:22;;;;;;;;;;;27.30;98.70;;;;;;1872250;76;20216;-88
2021/07/31 00:29:56;;;;;;;;;;;27.30;98.70;;;;;;1870773;74;20191;-88
2021/07/31 00:32:26;;;;;;;;;;;27.30;98.60;;;;;;1857378;74;20572;-87
2021/07/31 00:34:56;;;;;;;;;;;27.40;98.60;;;;;;1874187;76;20174;-88
2021/07/31 00:37:27;;;;;;;;;;;27.40;98.60;;;;;;1881846;76;20168;-89
2021/07/31 00:39:56;;;;;;;;;;;27.40;98.50;;;;;;1865846;76;20333;-88
2021/07/31 00:42:26;;;;;;;;;;;27.50;98.60;;;;;;1868355;74;20271;-88
2021/07/31 00:44:55;;;;;;;;;;;27.50;98.50;;;;;;1882059;76;20212;-88
2021/07/31 00:47:25;;;;;;;;;;;27.50;98.40;;;;;;1881133;74;20211;-89
2021/07/31 00:49:55;;;;;;;;;;;27.50;98.50;;;;;;1870590;74;20550;-88
2021/07/31 00:52:25;;;;;;;;;;;27.60;98.50;;;;;;1834019;76;20188;-89
2021/07/31 00:54:58;;;;;;;;;;;27.60;98.40;;;;;;1822145;79;20449;-89
2021/07/31 00:57:48;;;;;;;;;;;27.60;98.60;;;;;;1805042;78;20223;-87
2021/07/31 01:00:23;;;;;;;;;;;27.70;98.40;;;;;;1820709;77;20520;-88
2021/07/31 01:02:49;;;;;;;;;;;27.70;98.20;;;;;;1827122;77;20123;-87
2021/07/31 01:05:20;;;;;;;;;;;27.70;98.10;;;;;;1834481;77;20233;-88
2021/07/31 01:07:51;;;;;;;;;;;27.70;97.80;;;;;;1868400;76;20210;-89
2021/07/31 01:10:21;;;;;;;;;;;27.70;98.00;;;;;;1852076;77;20196;-86
2021/07/31 01:12:51;;;;;;;;;;;27.70;98.00;;;;;;1838921;77;20239;-88
2021/07/31 01:15:20;;;;;;;;;;;27.80;98.10;;;;;;1838644;77;20210;-88
2021/07/31 01:17:50;;;;;;;;;;;27.80;97.70;;;;;;1841540;77;20229;-89
2021/07/31 01:20:20;;;;;;;;;;;27.80;97.50;;;;;;1829524;78;20192;-88
2021/07/31 01:22:50;;;;;;;;;;;27.90;97.70;;;;;;1876000;75;20240;-89
2021/07/31 01:25:21;;;;;;;;;;;27.90;97.60;;;;;;1883612;76;20184;-85
2021/07/31 01:28:15;;;;;;;;;;;28.00;97.80;;;;;;1879652;75;20207;-87
2021/07/31 01:30:45;;;;;;;;;;;28.00;97.70;;;;;;1755809;80;20320;-84
2021/07/31 01:33:15;;;;;;;;;;;28.10;97.60;;;;;;1758053;80;20532;-85
2021/07/31 01:35:45;;;;;;;;;;;28.10;97.30;;;;;;1771649;80;20530;-83
2021/07/31 01:38:14;;;;;;;;;;;28.20;96.90;;;;;;1763517;80;20653;-77
2021/07/31 01:40:44;;;;;;;;;;;28.20;97.00;;;;;;1756598;80;20521;-77
2021/07/31 01:43:14;;;;;;;;;;;28.30;97.00;;;;;;1756927;82;20271;-78
2021/07/31 01:45:43;;;;;;;;;;;28.40;97.00;;;;;;1783342;80;20280;-77
2021/07/31 01:48:13;;;;;;;;;;;28.50;97.00;;;;;;1784340;79;20248;-77
2021/07/31 01:50:44;;;;;;;;;;;28.60;96.90;;;;;;1755249;80;20298;-77
2021/07/31 01:53:14;;;;;;;;;;;28.70;96.50;;;;;;1787623;79;20229;-78
2021/07/31 01:55:48;;;;;;;;;;;28.90;96.50;;;;;;1754051;81;20376;-78
2021/07/31 01:58:19;;;;;;;;;;;29.10;96.10;;;;;;1754377;80;20294;-78
2021/07/31 02:00:49;;;;;;;;;;;29.30;95.20;;;;;;1755704;81;20266;-79
2021/07/31 02:03:19;;;;;;;;;;;29.40;94.90;;;;;;1763191;80;20217;-79
2021/07/31 02:05:49;;;;;;;;;;;29.50;94.70;;;;;;1776605;79;20427;-78
2021/07/31 02:08:19;;;;;;;;;;;29.70;94.80;;;;;;1813210;79;20190;-78
2021/07/31 02:10:54;;;;;;;;;;;29.80;94.60;;;;;;1805489;77;20545;-80
2021/07/31 02:13:24;;;;;;;;;;;30.00;94.40;;;;;;1783568;80;20210;-78
2021/07/31 02:15:54;;;;;;;;;;;30.10;93.70;;;;;;1792990;78;20164;-79
2021/07/31 02:18:24;;;;;;;;;;;30.20;93.20;;;;;;1785887;78;20186;-78
2021/07/31 02:20:53;;;;;;;;;;;30.40;93.20;;;;;;1795112;78;20133;-78
2021/07/31 02:23:23;;;;;;;;;;;30.50;92.70;;;;;;1786342;78;20243;-77
2021/07/31 02:25:53;;;;;;;;;;;30.60;92.60;;;;;;1793808;78;20125;-79
2021/07/31 02:28:23;;;;;;;;;;;30.70;92.60;;;;;;1782336;78;20602;-79
2021/07/31 02:30:53;;;;;;;;;;;30.70;92.10;;;;;;1785227;78;20166;-79
2021/07/31 02:33:27;;;;;;;;;;;30.80;91.40;;;;;;1787553;79;20180;-79
2021/07/31 02:35:54;;;;;;;;;;;30.80;91.30;;;;;;1783565;78;20235;-79
2021/07/31 02:38:23;;;;;;;;;;;30.90;91.50;;;;;;1788108;78;20242;-78
2021/07/31 02:40:53;;;;;;;;;;;31.00;91.00;;;;;;1785983;78;20214;-79
2021/07/31 02:43:23;;;;;;;;;;;31.00;91.10;;;;;;1789092;78;20362;-78
2021/07/31 02:45:55;;;;;;;;;;;31.00;91.10;;;;;;1789773;78;20219;-78
2021/07/31 02:48:27;;;;;;;;;;;31.10;90.90;;;;;;1786102;80;20200;-79
2021/07/31 02:50:57;;;;;;;;;;;31.30;90.60;;;;;;1788517;79;20596;-79
2021/07/31 02:53:27;;;;;;;;;;;31.30;90.00;;;;;;1786278;78;20555;-79
2021/07/31 02:55:58;;;;;;;;;;;31.30;90.30;;;;;;1840763;78;20305;-79
2021/07/31 02:58:28;;;;;;;;;;;31.20;90.50;;;;;;1832161;76;20295;-79
2021/07/31 03:00:59;;;;;;;;;;;31.10;89.80;;;;;;1804056;78;20377;-79
2021/07/31 03:03:29;;;;;;;;;;;31.10;90.20;;;;;;1806367;78;20121;-79
2021/07/31 03:06:00;;;;;;;;;;;31.00;90.60;;;;;;1788375;78;20229;-79
2021/07/31 03:08:31;;;;;;;;;;;30.90;90.60;;;;;;1789650;79;20186;-79
2021/07/31 03:11:01;;;;;;;;;;;30.90;90.50;;;;;;1791750;78;20205;-78
2021/07/31 03:13:31;;;;;;;;;;;30.80;90.60;;;;;;1842637;77;20205;-78
2021/07/31 03:16:02;;;;;;;;;;;30.90;90.30;;;;;;1814039;77;20232;-78
2021/07/31 03:18:32;;;;;;;;;;;31.00;90.80;;;;;;1840683;77;20240;-79
2021/07/31 03:21:02;;;;;;;;;;;31.20;90.40;;;;;;1835758;77;20154;-79
2021/07/31 03:23:31;;;;;;;;;;;31.40;89.20;;;;;;1847386;77;20212;-78
2021/07/31 03:26:01;;;;;;;;;;;31.60;88.60;;;;;;1850239;77;20209;-79
2021/07/31 03:28:31;;;;;;;;;;;31.70;87.50;;;;;;1839852;77;20247;-78
2021/07/31 03:31:01;;;;;;;;;;;31.70;87.30;;;;;;1851444;77;20162;-78
2021/07/31 03:33:31;;;;;;;;;;;31.70;87.40;;;;;;1831530;77;20190;-78
2021/07/31 03:36:01;;;;;;;;;;;31.70;88.20;;;;;;1841665;77;20226;-79
2021/07/31 03:38:34;;;;;;;;;;;31.60;87.90;;;;;;1853582;77;20193;-79
2021/07/31 03:41:04;;;;;;;;;;;31.60;88.40;;;;;;1817772;77;20134;-79
2021/07/31 03:43:34;;;;;;;;;;;31.70;88.00;;;;;;1829955;77;20131;-78
2021/07/31 03:46:06;;;;;;;;;;;31.70;87.50;;;;;;1852121;77;20221;-77
2021/07/31 03:48:35;;;;;;;;;;;31.70;88.20;;;;;;1876906;76;20211;-78
2021/07/31 03:51:09;;;;;;;;;;;31.60;88.60;;;;;;1845639;77;20166;-77
2021/07/31 03:53:39;;;;;;;;;;;31.60;89.20;;;;;;1840573;77;20185;-78
2021/07/31 03:56:08;;;;;;;;;;;31.50;88.80;;;;;;1862438;75;20242;-79
2021/07/31 03:58:38;;;;;;;;;;;31.40;89.20;;;;;;1880405;76;20497;-78
2021/07/31 04:01:12;;;;;;;;;;;31.40;89.20;;;;;;1874310;75;20131;-78
2021/07/31 04:03:44;;;;;;;;;;;31.50;88.80;;;;;;1803698;78;20355;-77
2021/07/31 04:06:13;;;;;;;;;;;31.50;89.60;;;;;;1795957;79;20202;-78
2021/07/31 04:08:43;;;;;;;;;;;31.60;89.40;;;;;;1801628;79;20370;-79
2021/07/31 04:11:13;;;;;;;;;;;31.70;89.20;;;;;;1804132;79;20168;-78
2021/07/31 04:13:43;;;;;;;;;;;31.80;88.40;;;;;;1808931;79;20292;-79
2021/07/31 04:16:13;;;;;;;;;;;31.80;89.00;;;;;;1807000;79;20170;-78
2021/07/31 04:18:42;;;;;;;;;;;31.80;89.00;;;;;;1810139;79;20219;-78
2021/07/31 04:21:12;;;;;;;;;;;31.80;88.60;;;;;;1895941;75;20418;-78
2021/07/31 04:23:42;;;;;;;;;;;31.80;88.60;;;;;;1868908;76;20225;-79
2021/07/31 04:26:13;;;;;;;;;;;31.80;88.60;;;;;;1865403;76;20216;-78
2021/07/31 04:28:53;;;;;;;;;;;;;;;;;;;;;
2021/07/31 04:31:32;;;;;;;;;;;31.80;87.20;;;;;;1868758;76;20450;-78
2021/07/31 04:34:02;;;;;;;;;;;31.80;87.20;;;;;;1871132;76;20190;-76
2021/07/31 04:36:33;;;;;;;;;;;31.80;87.00;;;;;;1868725;76;20192;-78
2021/07/31 04:39:03;;;;;;;;;;;31.80;87.30;;;;;;1883188;74;20528;-77
2021/07/31 04:41:34;;;;;;;;;;;31.80;86.40;;;;;;1867918;76;20242;-78
2021/07/31 04:44:03;;;;;;;;;;;31.80;86.40;;;;;;1878922;76;20220;-79
2021/07/31 04:46:33;;;;;;;;;;;31.80;87.50;;;;;;1837745;78;20121;-79
2021/07/31 04:49:03;;;;;;;;;;;31.80;86.00;;;;;;1817672;79;20435;-79
2021/07/31 04:51:33;;;;;;;;;;;31.80;84.70;;;;;;1812293;79;20221;-76
2021/07/31 04:54:03;;;;;;;;;;;31.90;85.50;;;;;;1825045;78;20202;-77
2021/07/31 04:59:59;;;;;;;;;;;32.10;84.70;;;;;;1613941;86;20247;-80
2021/07/31 05:02:29;;;;;;;;;;;32.20;83.40;;;;;;1634325;84;20326;-77
2021/07/31 05:05:00;;;;;;;;;;;32.30;82.40;;;;;;1697823;84;20296;-78
2021/07/31 05:07:29;;;;;;;;;;;32.30;82.40;;;;;;1696290;83;20232;-77
2021/07/31 05:10:00;;;;;;;;;;;32.40;82.50;;;;;;1701172;83;20705;-78
2021/07/31 05:12:29;;;;;;;;;;;32.40;82.50;;;;;;1700074;84;20399;-77
2021/07/31 05:14:59;;;;;;;;;;;32.40;81.60;;;;;;1701682;84;20318;-78
2021/07/31 05:17:29;;;;;;;;;;;32.50;82.20;;;;;;1701279;83;20607;-77
2021/07/31 05:19:59;;;;;;;;;;;32.60;82.20;;;;;;1701019;83;20977;-77
2021/07/31 05:22:45;;;;;;;;;;;;;;;;;;;;;
2021/07/31 05:25:10;;;;;;;;;;;32.60;81.30;;;;;;1678073;83;20224;-78
2021/07/31 05:27:39;;;;;;;;;;;32.60;80.10;;;;;;1709706;83;20583;-79
2021/07/31 05:30:09;;;;;;;;;;;32.60;81.30;;;;;;1705194;80;20254;-77
2021/07/31 05:32:40;;;;;;;;;;;32.70;81.40;;;;;;1764689;80;20229;-78
2021/07/31 05:35:10;;;;;;;;;;;32.70;80.70;;;;;;1769889;79;20299;-77
2021/07/31 05:37:40;;;;;;;;;;;32.80;79.80;;;;;;1822541;78;20207;-76
2021/07/31 05:40:10;;;;;;;;;;;32.90;79.60;;;;;;1813397;79;20245;-77
2021/07/31 05:42:41;;;;;;;;;;;33.00;79.20;;;;;;1814484;79;20383;-77
2021/07/31 05:45:11;;;;;;;;;;;33.00;79.20;;;;;;1815285;79;20222;-78
2021/07/31 05:47:41;;;;;;;;;;;33.00;79.00;;;;;;1875087;76;20177;-77
2021/07/31 05:50:11;;;;;;;;;;;33.10;78.80;;;;;;1801606;79;20245;-77
2021/07/31 05:52:42;;;;;;;;;;;33.10;78.90;;;;;;1825370;78;20220;-77
2021/07/31 05:55:12;;;;;;;;;;;33.00;78.00;;;;;;1825856;76;20371;-78
2021/07/31 05:57:51;;;;;;;;;;;32.90;78.80;;;;;;1825118;78;20245;-78
2021/07/31 06:00:21;;;;;;;;;;;32.90;78.30;;;;;;1822711;78;20214;-78
2021/07/31 06:02:53;;;;;;;;;;;32.80;79.20;;;;;;1824547;78;20414;-78
2021/07/31 06:05:23;;;;;;;;;;;32.80;79.10;;;;;;1829335;78;20216;-78
2021/07/31 06:07:53;;;;;;;;;;;32.80;79.30;;;;;;1810509;79;20201;-76
2021/07/31 06:10:22;;;;;;;;;;;32.80;80.80;;;;;;1875174;76;20142;-77
2021/07/31 06:12:53;;;;;;;;;;;32.70;80.50;;;;;;1876646;76;20217;-77
2021/07/31 06:15:23;;;;;;;;;;;32.70;81.20;;;;;;1877020;75;20643;-77
2021/07/31 06:17:53;;;;;;;;;;;32.70;81.80;;;;;;1878882;76;20221;-76
2021/07/31 06:20:22;;;;;;;;;;;32.70;81.60;;;;;;1875513;76;20189;-77
2021/07/31 06:22:52;;;;;;;;;;;32.70;82.00;;;;;;1877298;76;20229;-77
2021/07/31 06:25:22;;;;;;;;;;;32.70;81.10;;;;;;1876905;76;20217;-76
2021/07/31 06:27:53;;;;;;;;;;;32.70;81.20;;;;;;1877641;76;20177;-79
2021/07/31 06:30:25;;;;;;;;;;;32.70;81.00;;;;;;1875816;76;20245;-78
2021/07/31 06:32:55;;;;;;;;;;;32.60;80.70;;;;;;1813028;78;20240;-78
2021/07/31 06:35:24;;;;;;;;;;;32.60;81.20;;;;;;1813090;79;20233;-78
2021/07/31 06:37:54;;;;;;;;;;;32.60;81.00;;;;;;1820225;78;20738;-77
2021/07/31 06:40:24;;;;;;;;;;;32.60;81.40;;;;;;1818447;78;20792;-80
2021/07/31 06:42:54;;;;;;;;;;;32.60;81.50;;;;;;1817515;78;20508;-79
2021/07/31 06:45:26;;;;;;;;;;;32.60;81.20;;;;;;1819030;78;20227;-81
2021/07/31 06:47:56;;;;;;;;;;;32.60;81.10;;;;;;1818224;78;20123;-78
2021/07/31 06:50:26;;;;;;;;;;;32.60;81.50;;;;;;1803061;79;20185;-80
2021/07/31 06:52:56;;;;;;;;;;;32.60;82.00;;;;;;1829465;78;20486;-79
2021/07/31 06:55:25;;;;;;;;;;;32.60;82.10;;;;;;1829868;78;20213;-79
2021/07/31 06:57:55;;;;;;;;;;;32.50;83.00;;;;;;1830860;78;20229;-79
2021/07/31 07:00:25;;;;;;;;;;;32.50;83.90;;;;;;1830842;78;20195;-77
2021/07/31 07:02:55;;;;;;;;;;;32.40;83.50;;;;;;1827124;77;20225;-78
2021/07/31 07:05:25;;;;;;;;;;;32.40;83.60;;;;;;1829010;78;20210;-78
2021/07/31 07:07:54;;;;;;;;;;;32.40;83.60;;;;;;1823143;78;20220;-77
2021/07/31 07:10:24;;;;;;;;;;;32.40;83.30;;;;;;1832746;78;20202;-77
2021/07/31 07:12:54;;;;;;;;;;;32.40;83.30;;;;;;1829175;78;20170;-77
2021/07/31 07:15:25;;;;;;;;;;;32.60;83.10;;;;;;1830276;78;20274;-78
2021/07/31 07:17:55;;;;;;;;;;;32.70;82.40;;;;;;1828838;78;20242;-78
2021/07/31 07:20:25;;;;;;;;;;;32.80;83.40;;;;;;1831224;78;20221;-77
2021/07/31 07:22:54;;;;;;;;;;;32.90;83.50;;;;;;1826584;78;20139;-77
2021/07/31 07:25:24;;;;;;;;;;;33.00;84.10;;;;;;1832291;78;20547;-78
2021/07/31 07:27:54;;;;;;;;;;;33.10;83.50;;;;;;1831547;78;20167;-77
2021/07/31 07:30:24;;;;;;;;;;;33.10;83.10;;;;;;1831984;78;20213;-77
2021/07/31 07:32:54;;;;;;;;;;;33.10;81.90;;;;;;1831410;78;20305;-77
2021/07/31 07:35:24;;;;;;;;;;;33.10;81.30;;;;;;1832536;78;20328;-76
2021/07/31 07:37:54;;;;;;;;;;;33.10;80.80;;;;;;1832986;78;20118;-77
2021/07/31 07:40:23;;;;;;;;;;;33.10;80.90;;;;;;1832266;78;20170;-77
2021/07/31 07:42:53;;;;;;;;;;;33.10;81.40;;;;;;1833450;78;20240;-79
2021/07/31 07:45:22;;;;;;;;;;;33.10;82.00;;;;;;1830349;78;20284;-78
2021/07/31 07:47:52;;;;;;;;;;;33.10;81.90;;;;;;1834572;78;20135;-78
2021/07/31 07:50:22;;;;;;;;;;;33.10;82.40;;;;;;1830950;78;20275;-78
2021/07/31 07:52:51;;;;;;;;;;;33.10;81.20;;;;;;1833472;78;20210;-78
2021/07/31 07:55:21;;;;;;;;;;;33.10;80.90;;;;;;1832587;78;20261;-78
2021/07/31 07:57:51;;;;;;;;;;;33.10;81.90;;;;;;1829499;78;20233;-78
2021/07/31 08:00:22;;;;;;;;;;;33.10;82.50;;;;;;1831335;78;20225;-79
2021/07/31 08:02:52;;;;;;;;;;;33.00;82.30;;;;;;1798585;78;20263;-78
2021/07/31 08:05:22;;;;;;;;;;;33.00;82.30;;;;;;1833445;78;20256;-78
2021/07/31 08:07:51;;;;;;;;;;;33.00;81.30;;;;;;1832079;78;20498;-78
2021/07/31 08:10:21;;;;;;;;;;;33.00;81.40;;;;;;1831751;78;20259;-78
2021/07/31 08:12:51;;;;;;;;;;;32.90;81.50;;;;;;1831646;78;20201;-77
2021/07/31 08:15:21;;;;;;;;;;;32.90;82.00;;;;;;1833586;78;20430;-77
2021/07/31 08:17:50;;;;;;;;;;;32.80;82.00;;;;;;1830791;78;20919;-78
2021/07/31 08:20:21;;;;;;;;;;;32.80;82.20;;;;;;1833006;77;20206;-78
2021/07/31 08:22:51;;;;;;;;;;;32.80;82.40;;;;;;1831435;78;20474;-78
2021/07/31 08:25:20;;;;;;;;;;;32.70;81.90;;;;;;1828689;78;20221;-78
2021/07/31 08:27:50;;;;;;;;;;;32.70;82.30;;;;;;1835763;78;20603;-77
2021/07/31 08:30:20;;;;;;;;;;;32.70;82.80;;;;;;1832902;78;20178;-75
2021/07/31 08:32:50;;;;;;;;;;;32.60;82.70;;;;;;1830967;78;20206;-78
2021/07/31 08:35:19;;;;;;;;;;;32.60;83.70;;;;;;1835609;78;20210;-78
2021/07/31 08:37:49;;;;;;;;;;;32.60;83.60;;;;;;1827120;78;20523;-77
2021/07/31 08:40:19;;;;;;;;;;;32.60;84.50;;;;;;1827046;78;20182;-77
2021/07/31 08:42:48;;;;;;;;;;;32.60;83.30;;;;;;1815309;78;20431;-77
2021/07/31 08:45:18;;;;;;;;;;;32.60;81.60;;;;;;1823678;78;20166;-77
2021/07/31 08:47:49;;;;;;;;;;;32.60;81.00;;;;;;1826115;78;20239;-78
2021/07/31 08:50:19;;;;;;;;;;;32.60;81.40;;;;;;1811884;78;20487;-77
2021/07/31 08:52:50;;;;;;;;;;;32.60;81.90;;;;;;1830882;78;20178;-77
2021/07/31 08:55:20;;;;;;;;;;;32.60;81.50;;;;;;1824758;78;20173;-77
2021/07/31 08:57:50;;;;;;;;;;;32.40;77.70;;;;;;1826029;78;20198;-77
2021/07/31 09:00:19;;;;;;;;;;;32.10;78.00;;;;;;1821460;78;20219;-77
2021/07/31 09:02:49;;;;;;;;;;;31.60;79.60;;;;;;1782957;80;20206;-78
2021/07/31 09:05:20;;;;;;;;;;;31.20;81.10;;;;;;1799609;79;20161;-78
2021/07/31 09:07:50;;;;;;;;;;;30.90;82.30;;;;;;1817068;78;20519;-77
2021/07/31 09:10:20;;;;;;;;;;;30.60;83.70;;;;;;1799146;78;20661;-78
2021/07/31 09:12:51;;;;;;;;;;;30.40;85.00;;;;;;1867925;76;20185;-77
2021/07/31 09:15:22;;;;;;;;;;;30.20;86.20;;;;;;1874444;76;20223;-78
2021/07/31 09:17:52;;;;;;;;;;;30.00;87.40;;;;;;1863486;76;20263;-77
2021/07/31 09:20:22;;;;;;;;;;;29.80;89.00;;;;;;1874774;76;20165;-78
2021/07/31 09:22:52;;;;;;;;;;;29.50;89.50;;;;;;1869865;76;20478;-78
2021/07/31 09:25:23;;;;;;;;;;;29.30;90.40;;;;;;1865893;76;20584;-77
2021/07/31 09:27:53;;;;;;;;;;;29.20;90.70;;;;;;1870289;76;20200;-77
2021/07/31 09:30:23;;;;;;;;;;;29.20;90.80;;;;;;1865950;76;20224;-76
2021/07/31 09:32:53;;;;;;;;;;;29.10;90.90;;;;;;1878955;76;20279;-77
2021/07/31 09:35:25;;;;;;;;;;;29.00;91.30;;;;;;1848351;75;20242;-77
2021/07/31 09:37:56;;;;;;;;;;;28.90;91.60;;;;;;1871562;76;20251;-77
2021/07/31 09:40:26;;;;;;;;;;;28.90;91.80;;;;;;1871569;76;20499;-77
2021/07/31 09:42:58;;;;;;;;;;;28.90;92.00;;;;;;1868056;76;20157;-77
2021/07/31 09:45:29;;;;;;;;;;;28.80;91.80;;;;;;1866531;76;20525;-76
2021/07/31 09:48:00;;;;;;;;;;;28.90;91.70;;;;;;1869062;76;20217;-77
2021/07/31 09:50:31;;;;;;;;;;;29.00;92.20;;;;;;1876766;76;20220;-77
2021/07/31 09:53:02;;;;;;;;;;;29.10;91.20;;;;;;1796189;79;20527;-77
2021/07/31 09:55:32;;;;;;;;;;;29.10;91.10;;;;;;1804882;79;20321;-76
2021/07/31 09:58:02;;;;;;;;;;;29.20;91.00;;;;;;1825340;77;20136;-78
2021/07/31 10:00:32;;;;;;;;;;;29.20;91.10;;;;;;1807445;79;20251;-77
2021/07/31 10:03:02;;;;;;;;;;;29.30;91.60;;;;;;1801279;79;20461;-79
2021/07/31 10:05:33;;;;;;;;;;;29.20;90.90;;;;;;1877155;75;20197;-78
2021/07/31 10:08:03;;;;;;;;;;;29.30;90.90;;;;;;1879905;76;20236;-76
2021/07/31 10:10:33;;;;;;;;;;;29.30;91.20;;;;;;1883216;76;20199;-77
2021/07/31 10:13:03;;;;;;;;;;;29.30;91.60;;;;;;1881740;75;20243;-78
2021/07/31 10:15:33;;;;;;;;;;;29.30;91.70;;;;;;1872985;76;20394;-78
2021/07/31 10:18:04;;;;;;;;;;;29.30;91.70;;;;;;1878221;75;20254;-77
2021/07/31 10:20:33;;;;;;;;;;;29.30;91.80;;;;;;1887991;75;20244;-77
2021/07/31 10:23:03;;;;;;;;;;;29.30;91.60;;;;;;1869465;76;20541;-76
2021/07/31 10:25:33;;;;;;;;;;;29.30;91.20;;;;;;1853485;76;20192;-77
2021/07/31 10:28:06;;;;;;;;;;;29.30;91.20;;;;;;1879806;76;20159;-76
2021/07/31 10:30:38;;;;;;;;;;;29.40;91.30;;;;;;1859420;76;20176;-79
2021/07/31 10:33:08;;;;;;;;;;;29.40;92.00;;;;;;1878537;76;20183;-77
2021/07/31 10:35:38;;;;;;;;;;;29.40;91.90;;;;;;1869701;74;20235;-79
2021/07/31 10:38:09;;;;;;;;;;;29.30;91.90;;;;;;1867702;74;20238;-77
2021/07/31 10:40:41;;;;;;;;;;;29.30;91.80;;;;;;1878392;76;20163;-77
2021/07/31 10:43:11;;;;;;;;;;;29.30;92.30;;;;;;1870873;76;20441;-77
2021/07/31 10:45:41;;;;;;;;;;;29.20;92.10;;;;;;1868506;76;20194;-76
2021/07/31 10:48:12;;;;;;;;;;;29.20;91.70;;;;;;1872001;76;20199;-77
2021/07/31 10:50:42;;;;;;;;;;;29.20;92.30;;;;;;1871120;76;20213;-77
2021/07/31 10:53:12;;;;;;;;;;;29.10;91.80;;;;;;1866355;76;20146;-76
2021/07/31 10:55:44;;;;;;;;;;;29.20;92.10;;;;;;1885503;76;20244;-76
2021/07/31 10:58:14;;;;;;;;;;;29.10;92.40;;;;;;1864761;76;20422;-77
2021/07/31 11:00:45;;;;;;;;;;;29.10;92.00;;;;;;1876170;76;20405;-76
2021/07/31 11:03:20;;;;;;;;;;;29.10;92.10;;;;;;1886728;75;20860;-77
2021/07/31 11:05:49;;;;;;;;;;;29.10;92.30;;;;;;1881482;75;20150;-78
2021/07/31 11:08:20;;;;;;;;;;;29.10;92.10;;;;;;1880566;76;20471;-77
2021/07/31 11:10:51;;;;;;;;;;;29.10;92.10;;;;;;1881848;75;20181;-78
2021/07/31 11:13:22;;;;;;;;;;;29.20;92.20;;;;;;1873811;76;20228;-78
2021/07/31 11:15:53;;;;;;;;;;;29.20;91.90;;;;;;1877022;76;20140;-78
2021/07/31 11:18:24;;;;;;;;;;;29.20;91.90;;;;;;1820322;77;20418;-76
2021/07/31 11:20:54;;;;;;;;;;;29.20;91.80;;;;;;1850651;77;20192;-76
2021/07/31 11:23:25;;;;;;;;;;;29.20;91.70;;;;;;1835891;76;20148;-78
2021/07/31 11:25:55;;;;;;;;;;;29.20;91.80;;;;;;1844067;77;20267;-76
2021/07/31 11:28:25;;;;;;;;;;;29.30;91.70;;;;;;1831827;78;20474;-77
2021/07/31 11:30:55;;;;;;;;;;;29.30;91.70;;;;;;1831756;78;20209;-77
2021/07/31 11:33:25;;;;;;;;;;;29.30;91.80;;;;;;1840079;78;20190;-77
2021/07/31 11:35:56;;;;;;;;;;;29.30;91.90;;;;;;1876669;76;20181;-76
2021/07/31 11:38:27;;;;;;;;;;;29.30;92.00;;;;;;1879774;76;20221;-76
2021/07/31 11:40:59;;;;;;;;;;;29.30;91.80;;;;;;1883336;75;20256;-76
2021/07/31 11:43:28;;;;;;;;;;;29.30;91.60;;;;;;1881194;76;20217;-77
2021/07/31 11:45:58;;;;;;;;;;;29.40;91.80;;;;;;1880480;74;20295;-78
2021/07/31 11:48:28;;;;;;;;;;;29.40;91.70;;;;;;1876313;76;20174;-77
2021/07/31 11:50:59;;;;;;;;;;;29.40;92.00;;;;;;1871605;75;20184;-75
2021/07/31 11:53:29;;;;;;;;;;;29.40;92.50;;;;;;1877458;75;20183;-77
2021/07/31 11:56:01;;;;;;;;;;;29.30;92.40;;;;;;1886059;74;20193;-77
2021/07/31 11:58:31;;;;;;;;;;;29.30;92.60;;;;;;1881541;74;20408;-78
2021/07/31 12:01:01;;;;;;;;;;;29.20;92.50;;;;;;1881714;75;20201;-79
2021/07/31 12:03:32;;;;;;;;;;;29.20;92.90;;;;;;1880585;76;20191;-77
2021/07/31 12:06:04;;;;;;;;;;;29.10;93.50;;;;;;1821237;78;20156;-78
2021/07/31 12:08:35;;;;;;;;;;;29.00;93.30;;;;;;1834352;78;20165;-79
2021/07/31 12:11:05;;;;;;;;;;;29.00;93.80;;;;;;1834911;78;20178;-77
2021/07/31 12:13:35;;;;;;;;;;;28.90;93.90;;;;;;1847081;78;20245;-76
2021/07/31 12:16:05;;;;;;;;;;;28.90;93.60;;;;;;1839010;78;20485;-77
2021/07/31 12:18:35;;;;;;;;;;;28.80;93.70;;;;;;1891524;75;20454;-78
2021/07/31 12:21:06;;;;;;;;;;;28.80;94.20;;;;;;1896001;75;20533;-78
2021/07/31 12:23:36;;;;;;;;;;;28.70;94.40;;;;;;1893364;75;20157;-78
2021/07/31 12:26:08;;;;;;;;;;;28.70;94.60;;;;;;1889317;76;20234;-79
2021/07/31 12:28:38;;;;;;;;;;;28.70;94.90;;;;;;1890281;75;20234;-78
2021/07/31 12:31:09;;;;;;;;;;;28.70;94.40;;;;;;1890621;75;20205;-77
2021/07/31 12:33:39;;;;;;;;;;;28.70;94.20;;;;;;1878842;75;20131;-76
2021/07/31 12:36:10;;;;;;;;;;;28.70;94.20;;;;;;1878296;76;20176;-78
2021/07/31 12:38:40;;;;;;;;;;;28.70;94.10;;;;;;1872765;75;20197;-78
2021/07/31 12:41:09;;;;;;;;;;;28.70;94.20;;;;;;1880219;76;20444;-76
2021/07/31 12:43:40;;;;;;;;;;;28.70;94.30;;;;;;1888007;74;20199;-77
2021/07/31 12:46:09;;;;;;;;;;;28.80;94.80;;;;;;1877555;76;20212;-76
2021/07/31 12:48:39;;;;;;;;;;;28.80;95.10;;;;;;1868502;75;20203;-78
2021/07/31 12:51:09;;;;;;;;;;;28.70;95.00;;;;;;1881817;76;20142;-77
2021/07/31 12:53:38;;;;;;;;;;;28.70;95.20;;;;;;1898773;74;20198;-77
2021/07/31 12:56:08;;;;;;;;;;;28.70;95.50;;;;;;1876684;76;20156;-78
2021/07/31 12:58:38;;;;;;;;;;;28.70;95.60;;;;;;1885701;74;20220;-78
2021/07/31 13:01:13;;;;;;;;;;;28.70;95.80;;;;;;1896996;74;20304;-79
2021/07/31 13:04:00;;;;;;;;;;;28.70;96.00;;;;;;1877555;76;20436;-79
2021/07/31 13:06:30;;;;;;;;;;;28.70;96.10;;;;;;1880639;75;20468;-78
2021/07/31 13:09:00;;;;;;;;;;;28.60;96.30;;;;;;1876374;76;20168;-77
2021/07/31 13:11:33;;;;;;;;;;;28.70;96.30;;;;;;1881667;76;20127;-78
2021/07/31 13:14:03;;;;;;;;;;;28.60;96.40;;;;;;1849157;77;20187;-77
2021/07/31 13:16:33;;;;;;;;;;;28.60;96.60;;;;;;1830611;77;20242;-76
2021/07/31 13:19:03;;;;;;;;;;;28.60;96.70;;;;;;1823963;78;20154;-78
2021/07/31 13:21:33;;;;;;;;;;;28.60;96.90;;;;;;1833263;78;20378;-77
2021/07/31 13:24:03;;;;;;;;;;;28.60;96.90;;;;;;1827012;78;20193;-77
2021/07/31 13:26:33;;;;;;;;;;;28.60;97.10;;;;;;1884585;76;20239;-77
2021/07/31 13:29:02;;;;;;;;;;;28.60;97.00;;;;;;1895292;75;20117;-77
2021/07/31 13:31:32;;;;;;;;;;;28.60;96.90;;;;;;1883377;76;20122;-78
2021/07/31 13:34:02;;;;;;;;;;;28.70;96.90;;;;;;1880588;74;20406;-78
2021/07/31 13:36:33;;;;;;;;;;;28.70;96.90;;;;;;1868333;75;20128;-78
2021/07/31 13:39:03;;;;;;;;;;;28.70;96.80;;;;;;1880685;76;20133;-78
2021/07/31 13:41:33;;;;;;;;;;;28.80;96.80;;;;;;1891288;75;20150;-78
2021/07/31 13:44:04;;;;;;;;;;;28.80;96.80;;;;;;1877232;76;20563;-76
2021/07/31 13:46:35;;;;;;;;;;;28.80;96.70;;;;;;1888407;75;20216;-77
2021/07/31 13:49:07;;;;;;;;;;;28.90;96.70;;;;;;1871287;74;20463;-76
2021/07/31 13:51:36;;;;;;;;;;;28.90;96.70;;;;;;1878758;76;20215;-77
2021/07/31 13:54:06;;;;;;;;;;;28.90;96.60;;;;;;1881626;75;20177;-78
2021/07/31 13:56:36;;;;;;;;;;;28.90;96.60;;;;;;1872750;76;20610;-77
2021/07/31 13:59:06;;;;;;;;;;;29.00;96.60;;;;;;1883919;74;20618;-87
2021/07/31 14:01:39;;;;;;;;;;;29.00;96.50;;;;;;1863417;76;20174;-90
2021/07/31 14:04:11;;;;;;;;;;;29.10;96.50;;;;;;1862180;76;20556;-91
2021/07/31 14:06:46;;;;;;;;;;;29.10;96.30;;;;;;1861149;76;20180;-91
2021/07/31 14:09:16;;;;;;;;;;;29.10;96.20;;;;;;1862118;75;20160;-90
2021/07/31 14:11:47;;;;;;;;;;;29.10;96.10;;;;;;1866669;75;20139;-89
2021/07/31 14:14:19;;;;;;;;;;;29.10;96.00;;;;;;1810323;78;20182;-90
2021/07/31 14:16:50;;;;;;;;;;;29.20;95.90;;;;;;1810439;78;20160;-91
2021/07/31 14:19:34;;;;;;;;;;;29.20;95.80;;;;;;1826196;76;20212;-90
2021/07/31 14:21:52;;;;;;;;;;;29.30;95.80;;;;;;1765558;79;20135;-89
2021/07/31 14:24:22;;;;;;;;;;;29.30;95.70;;;;;;1883685;71;20195;-91
2021/07/31 14:26:52;;;;;;;;;;;29.30;95.60;;;;;;1892116;75;20235;-91
2021/07/31 14:29:21;;;;;;;;;;;29.30;95.60;;;;;;1896458;75;20275;-90
2021/07/31 14:31:57;;;;;;;;;;;29.30;95.60;;;;;;1896358;75;20134;-88
2021/07/31 14:34:27;;;;;;;;;;;29.30;95.60;;;;;;1900720;75;20239;-89
2021/07/31 14:37:01;;;;;;;;;;;29.30;95.50;;;;;;1891854;75;20536;-89
2021/07/31 14:39:34;;;;;;;;;;;29.30;95.50;;;;;;1892599;75;20286;-90
2021/07/31 14:42:21;;;;;;;;;;;29.30;95.50;;;;;;1903080;75;20410;-89
2021/07/31 14:44:53;;;;;;;;;;;29.30;95.40;;;;;;1876687;75;20195;-90